AET77UK VTBU-VTBI
Flight info
| Callsign | AET77UK |
|---|---|
| Flight time | 1h 23m |
| Altitude | 2000 |
| Route | VTBU DCT KOH LAN DCT KOH SRICHANG DCT BANGPAKONG DCT BANG NAM PREAW DCT BANG LUK SUA DCT VTBI |
| Aircraft | EC45/L-SFG/C |
Departure
| Time | 2026-04-19 06:57 |
|---|---|
| Airport | U-Tapao–Rayong–Pattaya International Airport (VTBU) |
Arrival
| Time | 2026-04-19 08:21 |
|---|---|
| Airport | Khao E To Airport (VTBI) |
| Time | Latitude | Longitude | Altitude | Speed | Heading |
|---|---|---|---|---|---|
| 2026-04-19 06:51 | 12.68710 | 101.00143 | 40 ft | 0 kts | 94° |
| 2026-04-19 06:55 | 12.68711 | 101.00146 | 41 ft | 3 kts | 102° |
| 2026-04-19 06:55 | 12.68710 | 101.00148 | 49 ft | 4 kts | 99° |
| 2026-04-19 06:55 | 12.68751 | 101.00178 | 53 ft | 9 kts | 358° |
| 2026-04-19 06:56 | 12.68833 | 101.00182 | 48 ft | 12 kts | 6° |
| 2026-04-19 06:56 | 12.68950 | 101.00184 | 70 ft | 20 kts | 340° |
| 2026-04-19 06:56 | 12.69034 | 101.00017 | 341 ft | 37 kts | 307° |
| 2026-04-19 06:56 | 12.69207 | 100.99641 | 516 ft | 79 kts | 294° |
| 2026-04-19 06:57 | 12.69459 | 100.99078 | 628 ft | 95 kts | 290° |
| 2026-04-19 06:57 | 12.69843 | 100.98470 | 686 ft | 104 kts | 298° |
| 2026-04-19 06:57 | 12.70345 | 100.97911 | 752 ft | 107 kts | 314° |
| 2026-04-19 06:57 | 12.70942 | 100.97395 | 748 ft | 115 kts | 318° |
| 2026-04-19 06:58 | 12.71597 | 100.96917 | 799 ft | 116 kts | 321° |
| 2026-04-19 06:58 | 12.72267 | 100.96459 | 778 ft | 114 kts | 327° |
| 2026-04-19 06:58 | 12.72917 | 100.96087 | 915 ft | 102 kts | 329° |
| 2026-04-19 06:58 | 12.73548 | 100.95744 | 1015 ft | 104 kts | 327° |
| 2026-04-19 06:59 | 12.74157 | 100.95342 | 1085 ft | 108 kts | 322° |
| 2026-04-19 06:59 | 12.74801 | 100.94825 | 971 ft | 121 kts | 319° |
| 2026-04-19 06:59 | 12.75418 | 100.94285 | 993 ft | 110 kts | 315° |
| 2026-04-19 06:59 | 12.76025 | 100.93786 | 1025 ft | 118 kts | 321° |
| 2026-04-19 07:00 | 12.76719 | 100.93318 | 1016 ft | 121 kts | 324° |
| 2026-04-19 07:00 | 12.77407 | 100.92829 | 1015 ft | 121 kts | 319° |
| 2026-04-19 07:00 | 12.78061 | 100.92285 | 1011 ft | 121 kts | 316° |
| 2026-04-19 07:00 | 12.78701 | 100.91692 | 1016 ft | 129 kts | 313° |
| 2026-04-19 07:01 | 12.79390 | 100.91015 | 1019 ft | 145 kts | 311° |
| 2026-04-19 07:01 | 12.80138 | 100.90303 | 1005 ft | 148 kts | 313° |
| 2026-04-19 07:01 | 12.80903 | 100.89608 | 1000 ft | 144 kts | 314° |
| 2026-04-19 07:01 | 12.81630 | 100.88927 | 1003 ft | 140 kts | 313° |
| 2026-04-19 07:02 | 12.82339 | 100.88273 | 1003 ft | 138 kts | 320° |
| 2026-04-19 07:02 | 12.83168 | 100.87786 | 1004 ft | 137 kts | 332° |
| 2026-04-19 07:02 | 12.84039 | 100.87383 | 1003 ft | 137 kts | 330° |
| 2026-04-19 07:02 | 12.84863 | 100.86892 | 1002 ft | 137 kts | 324° |
| 2026-04-19 07:03 | 12.85651 | 100.86344 | 997 ft | 136 kts | 322° |
| 2026-04-19 07:03 | 12.86400 | 100.85768 | 996 ft | 136 kts | 318° |
| 2026-04-19 07:03 | 12.87138 | 100.85160 | 996 ft | 136 kts | 317° |
| 2026-04-19 07:03 | 12.87870 | 100.84543 | 995 ft | 136 kts | 316° |
| 2026-04-19 07:04 | 12.88603 | 100.83920 | 994 ft | 137 kts | 316° |
| 2026-04-19 07:04 | 12.89339 | 100.83291 | 992 ft | 138 kts | 316° |
| 2026-04-19 07:04 | 12.90078 | 100.82657 | 991 ft | 140 kts | 316° |
| 2026-04-19 07:04 | 12.90810 | 100.81994 | 984 ft | 141 kts | 316° |
| 2026-04-19 07:05 | 12.91719 | 100.81649 | 996 ft | 140 kts | 352° |
| 2026-04-19 07:05 | 12.92677 | 100.81618 | 988 ft | 135 kts | 357° |
| 2026-04-19 07:05 | 12.93592 | 100.81572 | 986 ft | 133 kts | 355° |
| 2026-04-19 07:05 | 12.94529 | 100.81535 | 988 ft | 134 kts | 355° |
| 2026-04-19 07:06 | 12.95480 | 100.81498 | 986 ft | 138 kts | 356° |
| 2026-04-19 07:06 | 12.96418 | 100.81442 | 983 ft | 135 kts | 355° |
| 2026-04-19 07:06 | 12.97346 | 100.81351 | 984 ft | 133 kts | 354° |
| 2026-04-19 07:06 | 12.98257 | 100.81252 | 980 ft | 130 kts | 353° |
| 2026-04-19 07:07 | 12.99155 | 100.81159 | 981 ft | 130 kts | 354° |
| 2026-04-19 07:07 | 13.00077 | 100.81099 | 982 ft | 135 kts | 355° |
| 2026-04-19 07:07 | 13.01038 | 100.81065 | 979 ft | 139 kts | 358° |
| 2026-04-19 07:07 | 13.02016 | 100.81078 | 977 ft | 142 kts | 2° |
| 2026-04-19 07:08 | 13.02992 | 100.81131 | 974 ft | 142 kts | 2° |
| 2026-04-19 07:08 | 13.03962 | 100.81186 | 978 ft | 137 kts | 2° |
| 2026-04-19 07:08 | 13.04903 | 100.81243 | 989 ft | 134 kts | 2° |
| 2026-04-19 07:08 | 13.05824 | 100.81300 | 999 ft | 131 kts | 2° |
| 2026-04-19 07:09 | 13.06737 | 100.81334 | 1017 ft | 133 kts | 359° |
| 2026-04-19 07:09 | 13.07674 | 100.81360 | 1020 ft | 136 kts | 1° |
| 2026-04-19 07:09 | 13.08618 | 100.81398 | 1021 ft | 136 kts | 1° |
| 2026-04-19 07:09 | 13.09547 | 100.81449 | 1027 ft | 136 kts | 1° |
| 2026-04-19 07:10 | 13.10502 | 100.81365 | 1025 ft | 139 kts | 348° |
| 2026-04-19 07:10 | 13.11458 | 100.81171 | 1025 ft | 141 kts | 349° |
| 2026-04-19 07:10 | 13.12431 | 100.81095 | 1019 ft | 141 kts | 7° |
| 2026-04-19 07:10 | 13.13384 | 100.81312 | 1020 ft | 141 kts | 4° |
| 2026-04-19 07:11 | 13.14324 | 100.81008 | 1023 ft | 146 kts | 317° |
| 2026-04-19 07:11 | 13.15111 | 100.80320 | 1018 ft | 151 kts | 321° |
| 2026-04-19 07:11 | 13.16072 | 100.79939 | 1013 ft | 147 kts | 348° |
| 2026-04-19 07:11 | 13.17066 | 100.80069 | 1017 ft | 144 kts | 19° |
| 2026-04-19 07:12 | 13.17840 | 100.80670 | 1018 ft | 138 kts | 56° |
| 2026-04-19 07:12 | 13.18335 | 100.81509 | 1022 ft | 138 kts | 66° |
| 2026-04-19 07:12 | 13.18749 | 100.82399 | 1020 ft | 138 kts | 69° |
| 2026-04-19 07:12 | 13.19161 | 100.83287 | 1020 ft | 138 kts | 68° |
| 2026-04-19 07:13 | 13.19601 | 100.84165 | 1021 ft | 140 kts | 65° |
| 2026-04-19 07:13 | 13.20069 | 100.85050 | 1020 ft | 141 kts | 64° |
| 2026-04-19 07:13 | 13.20552 | 100.85913 | 1018 ft | 140 kts | 63° |
| 2026-04-19 07:13 | 13.21086 | 100.86780 | 1074 ft | 149 kts | 59° |
| 2026-04-19 07:14 | 13.21675 | 100.87696 | 1039 ft | 155 kts | 58° |
| 2026-04-19 07:14 | 13.22306 | 100.88613 | 1030 ft | 160 kts | 52° |
| 2026-04-19 07:14 | 13.23005 | 100.89513 | 1020 ft | 160 kts | 59° |
| 2026-04-19 07:14 | 13.23428 | 100.90538 | 854 ft | 155 kts | 86° |
| 2026-04-19 07:15 | 13.23397 | 100.91617 | 534 ft | 146 kts | 94° |
| 2026-04-19 07:15 | 13.23596 | 100.92572 | 521 ft | 131 kts | 76° |
| 2026-04-19 07:15 | 13.23743 | 100.94231 | 225 ft | 99 kts | 109° |
| 2026-04-19 07:16 | 13.23652 | 100.94889 | 248 ft | 89 kts | 102° |
| 2026-04-19 07:16 | 13.23507 | 100.95451 | 180 ft | 74 kts | 135° |
| 2026-04-19 07:16 | 13.23136 | 100.95552 | 149 ft | 54 kts | 221° |
| 2026-04-19 07:16 | 13.23122 | 100.95215 | 395 ft | 53 kts | 294° |
| 2026-04-19 07:17 | 13.23410 | 100.94998 | 832 ft | 50 kts | 315° |
| 2026-04-19 07:17 | 13.23657 | 100.94765 | 1072 ft | 51 kts | 315° |
| 2026-04-19 07:17 | 13.23912 | 100.94458 | 1051 ft | 67 kts | 296° |
| 2026-04-19 07:17 | 13.24168 | 100.93950 | 1190 ft | 90 kts | 296° |
| 2026-04-19 07:18 | 13.24671 | 100.93558 | 992 ft | 91 kts | 337° |
| 2026-04-19 07:18 | 13.25237 | 100.93308 | 1037 ft | 90 kts | 337° |
| 2026-04-19 07:18 | 13.25795 | 100.93062 | 1037 ft | 88 kts | 334° |
| 2026-04-19 07:18 | 13.26441 | 100.92756 | 1038 ft | 116 kts | 332° |
| 2026-04-19 07:19 | 13.27238 | 100.92408 | 1004 ft | 130 kts | 338° |
| 2026-04-19 07:19 | 13.28094 | 100.92079 | 995 ft | 131 kts | 337° |
| 2026-04-19 07:19 | 13.28956 | 100.91773 | 991 ft | 132 kts | 341° |
| 2026-04-19 07:19 | 13.29865 | 100.91694 | 991 ft | 135 kts | 11° |
| 2026-04-19 07:20 | 13.30683 | 100.92155 | 994 ft | 133 kts | 38° |
| 2026-04-19 07:20 | 13.31408 | 100.92729 | 999 ft | 132 kts | 40° |
| 2026-04-19 07:20 | 13.32158 | 100.93310 | 963 ft | 136 kts | 35° |
| 2026-04-19 07:20 | 13.32928 | 100.93854 | 673 ft | 132 kts | 34° |
| 2026-04-19 07:21 | 13.33692 | 100.94329 | 456 ft | 122 kts | 33° |
| 2026-04-19 07:21 | 13.34399 | 100.94691 | 330 ft | 107 kts | 33° |
| 2026-04-19 07:21 | 13.34916 | 100.95143 | 115 ft | 88 kts | 75° |
| 2026-04-19 07:21 | 13.35071 | 100.95677 | 97 ft | 70 kts | 92° |
| 2026-04-19 07:22 | 13.35179 | 100.96107 | 258 ft | 58 kts | 83° |
| 2026-04-19 07:22 | 13.35337 | 100.96529 | 295 ft | 74 kts | 79° |
| 2026-04-19 07:22 | 13.35596 | 100.97037 | 272 ft | 87 kts | 48° |
| 2026-04-19 07:22 | 13.36129 | 100.97384 | 279 ft | 95 kts | 23° |
| 2026-04-19 07:23 | 13.36699 | 100.97602 | 507 ft | 84 kts | 18° |
| 2026-04-19 07:23 | 13.37331 | 100.97784 | 510 ft | 107 kts | 15° |
| 2026-04-19 07:23 | 13.38075 | 100.97998 | 495 ft | 113 kts | 14° |
| 2026-04-19 07:23 | 13.38824 | 100.98168 | 487 ft | 106 kts | 360° |
| 2026-04-19 07:24 | 13.39543 | 100.98200 | 493 ft | 103 kts | 353° |
| 2026-04-19 07:24 | 13.40248 | 100.98208 | 486 ft | 99 kts | 358° |
| 2026-04-19 07:24 | 13.40920 | 100.98148 | 495 ft | 97 kts | 352° |
| 2026-04-19 07:24 | 13.41612 | 100.98041 | 495 ft | 104 kts | 350° |
| 2026-04-19 07:25 | 13.42366 | 100.97930 | 737 ft | 113 kts | 348° |
| 2026-04-19 07:25 | 13.43249 | 100.97855 | 671 ft | 141 kts | 355° |
| 2026-04-19 07:25 | 13.44264 | 100.97914 | 611 ft | 151 kts | 359° |
| 2026-04-19 07:25 | 13.45308 | 100.98051 | 604 ft | 151 kts | 4° |
| 2026-04-19 07:26 | 13.46372 | 100.98211 | 596 ft | 156 kts | 6° |
| 2026-04-19 07:26 | 13.47448 | 100.98300 | 587 ft | 152 kts | 360° |
| 2026-04-19 07:26 | 13.48432 | 100.98311 | 566 ft | 129 kts | 353° |
| 2026-04-19 07:26 | 13.49275 | 100.98238 | 587 ft | 116 kts | 353° |
| 2026-04-19 07:27 | 13.50066 | 100.98299 | 605 ft | 116 kts | 5° |
| 2026-04-19 07:27 | 13.50912 | 100.98378 | 595 ft | 127 kts | 354° |
| 2026-04-19 07:27 | 13.51711 | 100.98127 | 590 ft | 118 kts | 334° |
| 2026-04-19 07:27 | 13.52512 | 100.97956 | 590 ft | 117 kts | 350° |
| 2026-04-19 07:28 | 13.53310 | 100.97880 | 594 ft | 114 kts | 348° |
| 2026-04-19 07:28 | 13.54082 | 100.97685 | 590 ft | 114 kts | 340° |
| 2026-04-19 07:28 | 13.54844 | 100.97432 | 587 ft | 116 kts | 336° |
| 2026-04-19 07:28 | 13.55548 | 100.97187 | 916 ft | 106 kts | 330° |
| 2026-04-19 07:29 | 13.56223 | 100.96945 | 994 ft | 99 kts | 335° |
| 2026-04-19 07:29 | 13.56226 | 100.96945 | 994 ft | 99 kts | 336° |
| 2026-04-19 07:29 | 13.56742 | 100.96774 | 898 ft | 119 kts | 338° |
| 2026-04-19 07:29 | 13.57556 | 100.96490 | 981 ft | 132 kts | 336° |
| 2026-04-19 07:30 | 13.58472 | 100.96159 | 969 ft | 145 kts | 338° |
| 2026-04-19 07:30 | 13.59378 | 100.95674 | 962 ft | 148 kts | 317° |
| 2026-04-19 07:30 | 13.60145 | 100.94972 | 968 ft | 147 kts | 306° |
| 2026-04-19 07:30 | 13.60779 | 100.94153 | 465 ft | 142 kts | 302° |
| 2026-04-19 07:31 | 13.61236 | 100.93432 | 520 ft | 105 kts | 295° |
| 2026-04-19 07:31 | 13.61625 | 100.92765 | 533 ft | 116 kts | 295° |
| 2026-04-19 07:31 | 13.62080 | 100.92013 | 501 ft | 130 kts | 302° |
| 2026-04-19 07:31 | 13.62664 | 100.91270 | 483 ft | 135 kts | 303° |
| 2026-04-19 07:32 | 13.63164 | 100.90480 | 487 ft | 130 kts | 287° |
| 2026-04-19 07:32 | 13.63513 | 100.89612 | 482 ft | 132 kts | 289° |
| 2026-04-19 07:32 | 13.63876 | 100.88763 | 485 ft | 128 kts | 289° |
| 2026-04-19 07:32 | 13.64275 | 100.87949 | 486 ft | 128 kts | 292° |
| 2026-04-19 07:33 | 13.64822 | 100.87216 | 498 ft | 131 kts | 303° |
| 2026-04-19 07:33 | 13.65460 | 100.86527 | 492 ft | 134 kts | 304° |
| 2026-04-19 07:33 | 13.66070 | 100.85789 | 493 ft | 136 kts | 300° |
| 2026-04-19 07:33 | 13.66613 | 100.84991 | 495 ft | 136 kts | 297° |
| 2026-04-19 07:34 | 13.66942 | 100.84440 | 489 ft | 135 kts | 295° |
| 2026-04-19 07:34 | 13.67541 | 100.83701 | 493 ft | 137 kts | 322° |
| 2026-04-19 07:34 | 13.68680 | 100.83162 | 493 ft | 136 kts | 335° |
| 2026-04-19 07:34 | 13.69274 | 100.82922 | 498 ft | 136 kts | 332° |
| 2026-04-19 07:35 | 13.70049 | 100.82396 | 499 ft | 132 kts | 312° |
| 2026-04-19 07:35 | 13.70483 | 100.81347 | 501 ft | 118 kts | 269° |
| 2026-04-19 07:35 | 13.70424 | 100.80504 | 506 ft | 118 kts | 264° |
| 2026-04-19 07:35 | 13.70408 | 100.79934 | 499 ft | 121 kts | 267° |
| 2026-04-19 07:36 | 13.70480 | 100.79068 | 495 ft | 123 kts | 274° |
| 2026-04-19 07:36 | 13.70631 | 100.78208 | 500 ft | 122 kts | 270° |
| 2026-04-19 07:36 | 13.70504 | 100.77353 | 498 ft | 124 kts | 243° |
| 2026-04-19 07:36 | 13.70028 | 100.76621 | 490 ft | 122 kts | 219° |
| 2026-04-19 07:37 | 13.69305 | 100.76243 | 495 ft | 115 kts | 199° |
| 2026-04-19 07:37 | 13.68526 | 100.76031 | 495 ft | 116 kts | 195° |
| 2026-04-19 07:37 | 13.67732 | 100.75816 | 503 ft | 122 kts | 196° |
| 2026-04-19 07:37 | 13.66907 | 100.75493 | 502 ft | 128 kts | 195° |
| 2026-04-19 07:38 | 13.66069 | 100.75263 | 494 ft | 124 kts | 192° |
| 2026-04-19 07:38 | 13.65239 | 100.75348 | 491 ft | 124 kts | 155° |
| 2026-04-19 07:38 | 13.64750 | 100.76073 | 496 ft | 129 kts | 111° |
| 2026-04-19 07:38 | 13.64743 | 100.76992 | 499 ft | 132 kts | 72° |
| 2026-04-19 07:39 | 13.65352 | 100.77669 | 493 ft | 133 kts | 24° |
| 2026-04-19 07:39 | 13.66236 | 100.77901 | 499 ft | 134 kts | 4° |
| 2026-04-19 07:39 | 13.67176 | 100.77955 | 499 ft | 135 kts | 2° |
| 2026-04-19 07:39 | 13.68130 | 100.78025 | 500 ft | 140 kts | 7° |
| 2026-04-19 07:40 | 13.69101 | 100.78044 | 494 ft | 143 kts | 357° |
| 2026-04-19 07:40 | 13.70092 | 100.78088 | 498 ft | 142 kts | 354° |
| 2026-04-19 07:40 | 13.70750 | 100.77575 | 539 ft | 120 kts | 257° |
| 2026-04-19 07:40 | 13.70338 | 100.76762 | 225 ft | 133 kts | 230° |
| 2026-04-19 07:41 | 13.69638 | 100.76241 | 110 ft | 121 kts | 200° |
| 2026-04-19 07:41 | 13.68878 | 100.76131 | 99 ft | 98 kts | 169° |
| 2026-04-19 07:41 | 13.68842 | 100.76142 | 170 ft | 59 kts | 295° |
| 2026-04-19 07:41 | 13.68855 | 100.75806 | 58 ft | 44 kts | 187° |
| 2026-04-19 07:42 | 13.68518 | 100.75859 | 230 ft | 61 kts | 181° |
| 2026-04-19 07:42 | 13.67993 | 100.75803 | 197 ft | 88 kts | 201° |
| 2026-04-19 07:42 | 13.67367 | 100.75618 | 251 ft | 104 kts | 172° |
| 2026-04-19 07:42 | 13.66762 | 100.76097 | 350 ft | 125 kts | 118° |
| 2026-04-19 07:43 | 13.66965 | 100.76858 | 568 ft | 118 kts | 15° |
| 2026-04-19 07:43 | 13.67868 | 100.76977 | 349 ft | 143 kts | 5° |
| 2026-04-19 07:43 | 13.68877 | 100.77048 | 132 ft | 141 kts | 3° |
| 2026-04-19 07:43 | 13.69758 | 100.77085 | 251 ft | 112 kts | 2° |
| 2026-04-19 07:44 | 13.70236 | 100.76843 | 201 ft | 33 kts | 202° |
| 2026-04-19 07:44 | 13.70084 | 100.76751 | 39 ft | 20 kts | 173° |
| 2026-04-19 07:44 | 13.69992 | 100.76768 | 19 ft | 7 kts | 128° |
| 2026-04-19 07:44 | 13.69981 | 100.76776 | 7 ft | 0 kts | 103° |
| 2026-04-19 07:45 | 13.69975 | 100.76810 | 47 ft | 15 kts | 121° |
| 2026-04-19 07:45 | 13.69963 | 100.77075 | 106 ft | 50 kts | 106° |
| 2026-04-19 07:46 | 13.69888 | 100.77492 | 190 ft | 68 kts | 101° |
| 2026-04-19 07:46 | 13.70139 | 100.77980 | 191 ft | 96 kts | 41° |
| 2026-04-19 07:46 | 13.70788 | 100.78223 | 184 ft | 87 kts | 2° |
| 2026-04-19 07:46 | 13.71273 | 100.78237 | 435 ft | 59 kts | 349° |
| 2026-04-19 07:47 | 13.71561 | 100.77937 | 360 ft | 68 kts | 277° |
| 2026-04-19 07:47 | 13.71607 | 100.77402 | 182 ft | 81 kts | 251° |
| 2026-04-19 07:47 | 13.71535 | 100.76810 | 142 ft | 84 kts | 271° |
| 2026-04-19 07:47 | 13.71637 | 100.76223 | 74 ft | 86 kts | 263° |
| 2026-04-19 07:48 | 13.71671 | 100.76089 | 161 ft | 23 kts | 256° |
| 2026-04-19 07:48 | 13.71708 | 100.75816 | 150 ft | 56 kts | 254° |
| 2026-04-19 07:48 | 13.71672 | 100.75349 | 122 ft | 73 kts | 265° |
| 2026-04-19 07:48 | 13.71634 | 100.74845 | 170 ft | 69 kts | 237° |
| 2026-04-19 07:49 | 13.71239 | 100.74578 | 183 ft | 76 kts | 201° |
| 2026-04-19 07:49 | 13.70664 | 100.74392 | 146 ft | 91 kts | 194° |
| 2026-04-19 07:49 | 13.70008 | 100.74223 | 97 ft | 101 kts | 194° |
| 2026-04-19 07:49 | 13.69304 | 100.74042 | 24 ft | 105 kts | 194° |
| 2026-04-19 07:50 | 13.68617 | 100.73863 | 35 ft | 101 kts | 193° |
| 2026-04-19 07:50 | 13.68123 | 100.73720 | 326 ft | 43 kts | 198° |
| 2026-04-19 07:50 | 13.67644 | 100.73591 | 225 ft | 85 kts | 197° |
| 2026-04-19 07:50 | 13.67019 | 100.73441 | 232 ft | 96 kts | 191° |
| 2026-04-19 07:51 | 13.66507 | 100.73699 | 439 ft | 97 kts | 121° |
| 2026-04-19 07:51 | 13.66337 | 100.74425 | 464 ft | 112 kts | 103° |
| 2026-04-19 07:51 | 13.66281 | 100.75272 | 435 ft | 128 kts | 99° |
| 2026-04-19 07:51 | 13.66383 | 100.76215 | 441 ft | 137 kts | 65° |
| 2026-04-19 07:52 | 13.67165 | 100.76715 | 531 ft | 139 kts | 15° |
| 2026-04-19 07:52 | 13.68186 | 100.76938 | 372 ft | 155 kts | 12° |
| 2026-04-19 07:52 | 13.69180 | 100.77193 | 574 ft | 142 kts | 17° |
| 2026-04-19 07:52 | 13.70089 | 100.77491 | 766 ft | 140 kts | 26° |
| 2026-04-19 07:53 | 13.70863 | 100.77458 | 682 ft | 116 kts | 269° |
| 2026-04-19 07:53 | 13.70421 | 100.76686 | 293 ft | 133 kts | 222° |
| 2026-04-19 07:53 | 13.69674 | 100.76243 | 122 ft | 116 kts | 197° |
| 2026-04-19 07:53 | 13.69053 | 100.76070 | 7 ft | 61 kts | 191° |
| 2026-04-19 07:54 | 13.69003 | 100.76059 | 7 ft | 0 kts | 195° |
| 2026-04-19 07:54 | 13.68993 | 100.76077 | 28 ft | 24 kts | 127° |
| 2026-04-19 07:54 | 13.69025 | 100.76376 | 135 ft | 53 kts | 103° |
| 2026-04-19 07:54 | 13.69206 | 100.76799 | 220 ft | 78 kts | 55° |
| 2026-04-19 07:55 | 13.69717 | 100.77103 | 335 ft | 94 kts | 34° |
| 2026-04-19 07:55 | 13.70360 | 100.77400 | 413 ft | 103 kts | 20° |
| 2026-04-19 07:55 | 13.71011 | 100.77671 | 566 ft | 103 kts | 25° |
| 2026-04-19 07:55 | 13.71646 | 100.77667 | 535 ft | 96 kts | 298° |
| 2026-04-19 07:56 | 13.71555 | 100.77065 | 421 ft | 89 kts | 238° |
| 2026-04-19 07:56 | 13.71090 | 100.76648 | 269 ft | 91 kts | 203° |
| 2026-04-19 07:56 | 13.70570 | 100.76469 | 245 ft | 69 kts | 197° |
| 2026-04-19 07:56 | 13.70153 | 100.76359 | 165 ft | 56 kts | 195° |
| 2026-04-19 07:57 | 13.69836 | 100.76288 | 110 ft | 39 kts | 199° |
| 2026-04-19 07:57 | 13.69620 | 100.76223 | 82 ft | 25 kts | 203° |
| 2026-04-19 07:57 | 13.69474 | 100.76185 | 93 ft | 25 kts | 198° |
| 2026-04-19 07:57 | 13.69262 | 100.76129 | 66 ft | 41 kts | 194° |
| 2026-04-19 07:58 | 13.68985 | 100.76099 | 149 ft | 39 kts | 90° |
| 2026-04-19 07:58 | 13.69181 | 100.76265 | 64 ft | 14 kts | 203° |
| 2026-04-19 07:58 | 13.69102 | 100.76238 | 15 ft | 8 kts | 285° |
| 2026-04-19 07:58 | 13.68990 | 100.76208 | 71 ft | 28 kts | 232° |
| 2026-04-19 07:59 | 13.68799 | 100.76114 | 109 ft | 26 kts | 341° |
| 2026-04-19 07:59 | 13.68698 | 100.76090 | 64 ft | 9 kts | 12° |
| 2026-04-19 07:59 | 13.68655 | 100.76127 | 52 ft | 12 kts | 19° |
| 2026-04-19 07:59 | 13.68608 | 100.76223 | 115 ft | 17 kts | 46° |
| 2026-04-19 08:00 | 13.68588 | 100.76272 | 8 ft | 0 kts | 54° |
| 2026-04-19 08:00 | 13.68574 | 100.76281 | 109 ft | 11 kts | 189° |
| 2026-04-19 08:01 | 13.68349 | 100.76140 | 125 ft | 70 kts | 213° |
| 2026-04-19 08:01 | 13.67849 | 100.75764 | 68 ft | 103 kts | 213° |
| 2026-04-19 08:01 | 13.67261 | 100.75321 | 313 ft | 84 kts | 189° |
| 2026-04-19 08:01 | 13.67404 | 100.75674 | 585 ft | 95 kts | 30° |
| 2026-04-19 08:02 | 13.68081 | 100.76024 | 493 ft | 119 kts | 34° |
| 2026-04-19 08:02 | 13.68710 | 100.76589 | 518 ft | 119 kts | 44° |
| 2026-04-19 08:02 | 13.69266 | 100.77213 | 529 ft | 120 kts | 61° |
| 2026-04-19 08:02 | 13.69654 | 100.78002 | 522 ft | 126 kts | 74° |
| 2026-04-19 08:03 | 13.69958 | 100.78844 | 519 ft | 124 kts | 76° |
| 2026-04-19 08:03 | 13.70239 | 100.79690 | 521 ft | 126 kts | 73° |
| 2026-04-19 08:03 | 13.70541 | 100.80545 | 516 ft | 124 kts | 71° |
| 2026-04-19 08:03 | 13.70892 | 100.81340 | 515 ft | 121 kts | 68° |
| 2026-04-19 08:04 | 13.71315 | 100.82116 | 523 ft | 129 kts | 63° |
| 2026-04-19 08:04 | 13.71797 | 100.82924 | 513 ft | 134 kts | 63° |
| 2026-04-19 08:04 | 13.72317 | 100.83698 | 518 ft | 129 kts | 58° |
| 2026-04-19 08:04 | 13.72818 | 100.84453 | 523 ft | 129 kts | 59° |
| 2026-04-19 08:05 | 13.73337 | 100.85223 | 520 ft | 132 kts | 58° |
| 2026-04-19 08:05 | 13.73864 | 100.85992 | 516 ft | 131 kts | 58° |
| 2026-04-19 08:05 | 13.74401 | 100.86743 | 512 ft | 132 kts | 59° |
| 2026-04-19 08:05 | 13.75015 | 100.87467 | 512 ft | 134 kts | 53° |
| 2026-04-19 08:06 | 13.75624 | 100.88171 | 513 ft | 130 kts | 52° |
| 2026-04-19 08:06 | 13.76181 | 100.88870 | 512 ft | 121 kts | 54° |
| 2026-04-19 08:06 | 13.76733 | 100.89584 | 536 ft | 139 kts | 55° |
| 2026-04-19 08:06 | 13.77339 | 100.90107 | 702 ft | 109 kts | 22° |
| 2026-04-19 08:07 | 13.77762 | 100.90416 | 647 ft | 138 kts | 35° |
| 2026-04-19 08:07 | 13.78471 | 100.91175 | 566 ft | 154 kts | 61° |
| 2026-04-19 08:07 | 13.78833 | 100.92228 | 532 ft | 158 kts | 74° |
| 2026-04-19 08:07 | 13.79229 | 100.93277 | 515 ft | 156 kts | 66° |
| 2026-04-19 08:08 | 13.79752 | 100.94263 | 510 ft | 157 kts | 59° |
| 2026-04-19 08:08 | 13.80307 | 100.95244 | 513 ft | 161 kts | 58° |
| 2026-04-19 08:08 | 13.80880 | 100.96249 | 506 ft | 161 kts | 58° |
| 2026-04-19 08:08 | 13.81439 | 100.97249 | 522 ft | 163 kts | 60° |
| 2026-04-19 08:09 | 13.82007 | 100.98260 | 529 ft | 162 kts | 56° |
| 2026-04-19 08:09 | 13.82710 | 100.99143 | 539 ft | 161 kts | 38° |
| 2026-04-19 08:09 | 13.83706 | 100.99706 | 535 ft | 165 kts | 20° |
| 2026-04-19 08:09 | 13.84751 | 101.00206 | 536 ft | 166 kts | 22° |
| 2026-04-19 08:10 | 13.85771 | 101.00772 | 537 ft | 167 kts | 28° |
| 2026-04-19 08:10 | 13.86769 | 101.01385 | 526 ft | 165 kts | 28° |
| 2026-04-19 08:10 | 13.87750 | 101.02016 | 530 ft | 165 kts | 30° |
| 2026-04-19 08:10 | 13.88724 | 101.02655 | 544 ft | 170 kts | 29° |
| 2026-04-19 08:11 | 13.89758 | 101.03298 | 531 ft | 176 kts | 30° |
| 2026-04-19 08:11 | 13.90809 | 101.03944 | 507 ft | 173 kts | 29° |
| 2026-04-19 08:11 | 13.91766 | 101.04604 | 256 ft | 159 kts | 34° |
| 2026-04-19 08:11 | 13.92519 | 101.05295 | 433 ft | 136 kts | 51° |
| 2026-04-19 08:12 | 13.92960 | 101.06130 | 484 ft | 131 kts | 67° |
| 2026-04-19 08:12 | 13.93306 | 101.06979 | 512 ft | 127 kts | 69° |
| 2026-04-19 08:12 | 13.93642 | 101.07812 | 520 ft | 124 kts | 60° |
| 2026-04-19 08:12 | 13.94062 | 101.08550 | 531 ft | 118 kts | 54° |
| 2026-04-19 08:13 | 13.94627 | 101.09284 | 544 ft | 141 kts | 46° |
| 2026-04-19 08:13 | 13.95308 | 101.10098 | 530 ft | 160 kts | 47° |
| 2026-04-19 08:13 | 13.96047 | 101.10962 | 528 ft | 160 kts | 47° |
| 2026-04-19 08:13 | 13.96781 | 101.11802 | 526 ft | 158 kts | 46° |
| 2026-04-19 08:14 | 13.97505 | 101.12636 | 524 ft | 153 kts | 47° |
| 2026-04-19 08:14 | 13.98796 | 101.14367 | 537 ft | 153 kts | 54° |
| 2026-04-19 08:14 | 13.99399 | 101.15293 | 536 ft | 158 kts | 54° |
| 2026-04-19 08:15 | 14.00013 | 101.16228 | 531 ft | 158 kts | 51° |
| 2026-04-19 08:15 | 14.00644 | 101.17139 | 533 ft | 156 kts | 52° |
| 2026-04-19 08:15 | 14.01301 | 101.18036 | 474 ft | 159 kts | 52° |
| 2026-04-19 08:15 | 14.01967 | 101.18908 | 452 ft | 154 kts | 50° |
| 2026-04-19 08:16 | 14.02565 | 101.19782 | 493 ft | 146 kts | 56° |
| 2026-04-19 08:16 | 14.03093 | 101.20676 | 514 ft | 147 kts | 59° |
| 2026-04-19 08:16 | 14.03602 | 101.21601 | 518 ft | 151 kts | 62° |
| 2026-04-19 08:16 | 14.04106 | 101.22544 | 521 ft | 151 kts | 62° |
| 2026-04-19 08:17 | 14.04538 | 101.23552 | 533 ft | 158 kts | 68° |
| 2026-04-19 08:17 | 14.04889 | 101.24658 | 527 ft | 166 kts | 73° |
| 2026-04-19 08:17 | 14.05212 | 101.25815 | 521 ft | 169 kts | 72° |
| 2026-04-19 08:17 | 14.05512 | 101.26994 | 520 ft | 170 kts | 76° |
| 2026-04-19 08:18 | 14.05773 | 101.28175 | 516 ft | 167 kts | 78° |
| 2026-04-19 08:18 | 14.06003 | 101.29347 | 523 ft | 167 kts | 78° |
| 2026-04-19 08:18 | 14.06192 | 101.30524 | 523 ft | 167 kts | 83° |
| 2026-04-19 08:18 | 14.06370 | 101.31699 | 369 ft | 165 kts | 88° |
| 2026-04-19 08:19 | 14.06515 | 101.32766 | 373 ft | 130 kts | 86° |
| 2026-04-19 08:19 | 14.06636 | 101.33654 | 276 ft | 120 kts | 90° |
| 2026-04-19 08:19 | 14.06651 | 101.34425 | 416 ft | 103 kts | 91° |
| 2026-04-19 08:19 | 14.06862 | 101.35151 | 385 ft | 112 kts | 72° |
| 2026-04-19 08:20 | 14.07313 | 101.35853 | 302 ft | 121 kts | 60° |
| 2026-04-19 08:20 | 14.07674 | 101.36612 | 241 ft | 111 kts | 77° |
| 2026-04-19 08:20 | 14.07894 | 101.37358 | 233 ft | 105 kts | 86° |
| 2026-04-19 08:20 | 14.07984 | 101.37792 | 157 ft | 76 kts | 91° |
| 2026-04-19 08:21 | 14.08010 | 101.38048 | 77 ft | 7 kts | 237° |
| 2026-04-19 08:21 | 14.07988 | 101.38029 | 43 ft | 2 kts | 185° |
| 2026-04-19 08:21 | 14.07980 | 101.38027 | 39 ft | 1 kts | 161° |
| 2026-04-19 08:21 | 14.07977 | 101.38027 | 39 ft | 0 kts | 154° |